METAR Data
IDs: Format: Raw Decoded Include TAF

Data at: 1428 UTC 21 May 2019

KICL 211415Z AUTO 12/04000012G19KT 060V120 8SM OVC014 09/07 A2982 RMK AO2
KICL 211355Z AUTO 09015G21KT 10SM OVC014 09/07 A2983 RMK AO2
KICL 211335Z AUTO 11009G22KT 10SM OVC014 09/07 A2985 RMK AO2
KICL 211315Z AUTO 11012G19KT 070V140 10SM OVC014 09/07 A2984 RMK AO2
KICL 211255Z AUTO 10014G26KT 10SM OVC013 09/07 A2981 RMK AO2
KICL 211235Z AUTO 09012G23KT 10SM OVC012 09/07 A2982 RMK AO2
KICL 211215Z AUTO 11009G17KT 10SM OVC011 09/08 A2983 RMK AO2
KICL 211155Z AUTO 11009G19KT 10SM OVC009 09/08 A2983 RMK AO2
KICL 211135Z AUTO 09013G22KT 10SM OVC009 09/08 A2982 RMK AO2
KICL 211115Z AUTO 09015G22KT 10SM OVC009 09/08 A2982 RMK AO2
KICL 211055Z AUTO 09016G22KT 10SM OVC009 09/08 A2982 RMK AO2
KICL 211035Z AUTO 10014G20KT 10SM OVC010 09/08 A2983 RMK AO2
KICL 211015Z AUTO 10012G19KT 10SM OVC010 09/08 A2984 RMK AO2
KICL 210955Z AUTO 11012G22KT 10SM OVC011 09/08 A2984 RMK AO2
KICL 210935Z AUTO 09011G18KT 10SM OVC011 09/08 A2984 RMK AO2
KICL 210915Z AUTO 08012G21KT 10SM OVC011 09/08 A2986 RMK AO2
KICL 210855Z AUTO 09009G18KT 10SM OVC012 09/07 A2988 RMK AO2
KICL 210835Z AUTO 09013G19KT 10SM BKN012 OVC020 09/07 A2988 RMK AO2
KICL 210815Z AUTO 09011G18KT 10SM BKN013 OVC021 09/07 A2989 RMK AO2
KICL 210755Z AUTO 09011KT 10SM OVC012 09/07 A2989 RMK AO2
KICL 210735Z AUTO 08011G18KT 10SM OVC011 09/07 A2988 RMK AO2
KICL 210715Z AUTO 08012G17KT 10SM OVC011 09/07 A2989 RMK AO2
KICL 210655Z AUTO 08009G15KT 10SM OVC012 09/07 A2991 RMK AO2
KICL 210635Z AUTO 08009G17KT 10SM OVC013 09/07 A2990 RMK AO2
KICL 210615Z AUTO 08013G18KT 10SM OVC013 09/07 A2990 RMK AO2
KICL 210555Z AUTO 09008G16KT 10SM BKN014 OVC036 09/07 A2992 RMK AO2
KICL 210535Z AUTO 09011G17KT 6SM BR SCT015 SCT026 OVC036 09/07 A2993 RMK AO2
KICL 210515Z AUTO 10013KT 10SM SCT014 OVC038 09/07 A2993 RMK AO2
KICL 210455Z AUTO 08011G16KT 10SM BKN014 OVC041 09/07 A2993 RMK AO2
KICL 210435Z AUTO 09013KT 10SM OVC013 09/07 A2993 RMK AO2
KICL 210415Z AUTO 09011G18KT 10SM OVC014 09/07 A2994 RMK AO2
KICL 210355Z AUTO 11013G20KT 10SM BKN014 OVC060 09/07 A2993 RMK AO2
KICL 210335Z AUTO 08012G19KT 060V140 10SM BKN014 OVC060 09/07 A2994 RMK AO2
KICL 210315Z AUTO 08012KT 10SM SCT013 OVC065 09/07 A2994 RMK AO2
KICL 210255Z AUTO 07011G19KT 10SM FEW013 OVC065 09/07 A2994 RMK AO2
KICL 210235Z AUTO 08013KT 10SM FEW014 OVC070 09/07 A2994 RMK AO2
KICL 210215Z AUTO 09014G20KT 10SM FEW014 OVC070 09/07 A2995 RMK AO2
KICL 210155Z AUTO 08010G16KT 10SM FEW014 OVC070 09/07 A2997 RMK AO2
KICL 210135Z AUTO 07012G18KT 10SM SCT013 OVC070 09/07 A2998 RMK AO2
KICL 210115Z AUTO 08012G20KT 10SM BKN013 BKN075 OVC100 09/07 A2998 RMK AO2
KICL 210055Z AUTO 09013G19KT 10SM BKN012 BKN075 OVC110 08/07 A2999 RMK AO2 P0001
KICL 210035Z AUTO 09009G19KT 070V130 10SM BKN011 BKN100 08/07 A2999 RMK AO2
KICL 210015Z AUTO 10015KT 10SM FEW011 SCT100 08/08 A3001 RMK AO2
KICL 202355Z AUTO 10009KT 080V140 8SM -RA SCT010 SCT020 SCT042 08/08 A3004 RMK AO2 P0016
KICL 202335Z AUTO 12005KT 6SM -RA SCT010 SCT020 BKN043 08/08 A3007 RMK AO2
KICL 202315Z AUTO 13004G10KT 3SM RA SCT030 SCT036 SCT047 08/08 A3010 RMK AO2
KICL 202255Z AUTO 12005KT 3SM RA FEW027 BKN033 BKN040 09/08 A3010 RMK AO2 P0026
KICL 202235Z AUTO 11004KT 3SM RA SCT033 SCT046 SCT075 09/08 A3010 RMK AO2
KICL 202215Z AUTO 06005KT 4SM RA FEW036 FEW041 SCT075 09/08 A3009 RMK AO2
KICL 202155Z AUTO 04006KT 3SM RA FEW039 SCT047 09/08 A3009 RMK AO2 P0008
KICL 202135Z AUTO VRB05KT 5SM -RA FEW036 FEW044 SCT050 10/07 A3010 RMK AO2
KICL 202115Z AUTO 06010KT 7SM -RA FEW055 FEW080 10/06 A3009 RMK AO2
KICL 202055Z AUTO 10006KT 10SM CLR 11/06 A3012 RMK AO2
KICL 202035Z AUTO VRB06KT 10SM FEW028 11/05 A3014 RMK AO2
KICL 202015Z AUTO 13006G14KT 10SM FEW029 11/05 A3013 RMK AO2
KICL 201955Z AUTO 09010G15KT 10SM CLR 12/05 A3010 RMK AO2
KICL 201935Z AUTO 07009KT 10SM FEW027 12/06 A3011 RMK AO2
KICL 201915Z AUTO 09011KT 10SM BKN027 12/06 A3014 RMK AO2
KICL 201855Z AUTO 08006G13KT 10SM SCT027 11/05 A3015 RMK AO2
KICL 201835Z AUTO 08007G13KT 040V110 10SM FEW027 11/05 A3015 RMK AO2
KICL 201815Z AUTO 07008G16KT 10SM SCT026 SCT090 11/06 A3014 RMK AO2
KICL 201755Z AUTO 08008KT 10SM BKN026 11/05 A3016 RMK AO2
KICL 201735Z AUTO 08010KT 050V110 10SM BKN025 11/05 A3017 RMK AO2
KICL 201715Z AUTO 08010G15KT 10SM SCT025 11/05 A3014 RMK AO2
KICL 201655Z AUTO 07012KT 10SM SCT024 10/05 A3015 RMK AO2
KICL 201635Z AUTO 05009KT 10SM BKN023 10/05 A3016 RMK AO2
KICL 201615Z AUTO 10010G15KT 10SM SCT022 10/04 A3018 RMK AO2
KICL 201555Z AUTO 05008KT 10SM BKN021 09/04 A3018 RMK AO2
KICL 201535Z AUTO 04011KT 10SM BKN019 08/04 A3017 RMK AO2
KICL 201515Z AUTO 08011G16KT 10SM BKN018 08/04 A3016 RMK AO2
KICL 201455Z AUTO 03011KT 10SM OVC017 08/04 A3017 RMK AO2
KICL 201435Z AUTO 07007G13KT 10SM OVC019 07/03 A3019 RMK AO2
KICL 201415Z AUTO VRB06KT 10SM OVC017 07/04 A3020 RMK AO2
KICL 201355Z AUTO 02007KT 10SM OVC017 07/03 A3018 RMK AO2
KICL 201335Z AUTO 01007KT 10SM OVC017 07/03 A3017 RMK AO2
KICL 201315Z AUTO 01007G12KT 10SM OVC017 06/03 A3018 RMK AO2
KICL 201255Z AUTO 04009KT 10SM BKN018 06/03 A3015 RMK AO2
KICL 201235Z AUTO 05010KT 10SM OVC017 07/03 A3014 RMK AO2
KICL 201215Z AUTO 04009KT 10SM OVC016 06/03 A3013 RMK AO2
KICL 201155Z AUTO 02007KT 10SM OVC016 06/04 A3013 RMK AO2
KICL 201135Z AUTO 01007KT 10SM BKN018 06/04 A3013 RMK AO2
KICL 201115Z AUTO 02005KT 10SM FEW014 FEW120 06/04 A3012 RMK AO2
KICL 201055Z AUTO 01007KT 10SM SCT012 SCT110 06/04 A3012 RMK AO2
KICL 201035Z AUTO 02006KT 10SM BKN012 BKN120 06/05 A3011 RMK AO2
KICL 201015Z AUTO 01010KT 10SM BKN015 BKN120 07/05 A3011 RMK AO2
KICL 200955Z AUTO 02010G15KT 10SM OVC016 07/05 A3011 RMK AO2
KICL 200935Z AUTO 02008KT 10SM BKN014 07/06 A3010 RMK AO2
KICL 200915Z AUTO 01009KT 10SM CLR 07/05 A3010 RMK AO2
KICL 200855Z AUTO 02007G13KT 10SM FEW035 08/06 A3010 RMK AO2
KICL 200835Z AUTO 01010G16KT 10SM BKN037 08/06 A3010 RMK AO2
KICL 200815Z AUTO 02010KT 10SM FEW019 FEW024 OVC037 09/06 A3009 RMK AO2
KICL 200755Z AUTO 36012KT 10SM OVC036 09/06 A3008 RMK AO2
KICL 200735Z AUTO 35009KT 10SM FEW018 SCT023 OVC038 09/07 A3009 RMK AO2
KICL 200715Z AUTO 36008G14KT 10SM BKN018 BKN023 OVC035 10/07 A3008 RMK AO2
KICL 200655Z AUTO 35010KT OVC035 10/06 A3007 RMK AO2
KICL 200635Z AUTO 34008KT 10SM BKN036 OVC043 10/07 A3008 RMK AO2
KICL 200615Z AUTO 36010KT 10SM OVC043 10/06 A3007 RMK AO2
KICL 200555Z AUTO 36010G16KT 10SM FEW021 OVC044 11/07 A3007 RMK AO2
KICL 200535Z AUTO 34009KT 10SM OVC043 11/06 A3006 RMK AO2
KICL 200515Z AUTO 33007G14KT 10SM OVC040 11/06 A3006 RMK AO2
KICL 200455Z AUTO 32006KT 10SM OVC037 11/06 A3005 RMK AO2
KICL 200435Z AUTO 32007KT 10SM OVC038 11/06 A3005 RMK AO2
KICL 200415Z AUTO 30006KT 10SM OVC040 11/06 A3004 RMK AO2
KICL 200355Z AUTO 30007KT 10SM OVC042 11/06 A3005 RMK AO2
KICL 200335Z AUTO 30006KT 10SM OVC042 11/06 A3004 RMK AO2
KICL 200315Z AUTO 30006KT 10SM OVC042 11/06 A3003 RMK AO2
KICL 200255Z AUTO 31008KT 10SM BKN042 11/06 A3001 RMK AO2
KICL 200235Z AUTO 33007KT 10SM FEW042 11/06 A2999 RMK AO2